• Join FlightAware (Why Join?)
  • Login
  • US Flag 
06:11AM EDT


 

Airport Tracker/Info


-or-


 

Live Flight TrackerFlight Track Log ✈ AWE1451 ✈ 23-Jun-2012 ✈ KPHL - MDPC / PUJ

Flight Track Log - Related Links

Times and Time Zones

All times are in EDT time to prevent confusion due to time zone crossing. See the AWE1451 flight status page for this flight to view local times or setup timezone preferences in your user account.

Time Position Orientation Groundspeed Altitude Reporting Facility
EDT Latitude Longitude Course Direction KTS MPH feet Rate Location/Type
10:52AM 39.8500 -75.2833 205° Southwest 181 208 1,100  Level Philadelphia TRACON
10:56AM 39.6217 -75.4217 176° South 262 302 9,500 1,920 Climbing Washington Center
10:57AM 39.5364 -75.4139 175° South 284 327 10,900 1,680 Climbing Washington Center
10:58AM 39.4383 -75.4033 176° South 322 371 13,000 2,040 Climbing Washington Center
10:59AM 39.3403 -75.3956 176° South 349 402 15,100 1,500 Climbing Washington Center
11:00AM 39.2383 -75.3853 184° South 363 418 16,000 960 Climbing Washington Center
11:01AM 39.1361 -75.3936 187° South 369 425 17,000 420 Climbing Washington Center
11:02AM 39.0361 -75.4100 186° South 369 425 16,900 540 Descending Washington Center
11:03AM 38.9319 -75.4236 187° South 369 425 18,200 1,440 Climbing Washington Center
11:04AM 38.8256 -75.4397 187° South 375 432 19,800 1,500 Climbing Washington Center
11:05AM 38.7172 -75.4558 188° South 387 445 21,300 1,380 Climbing Washington Center
11:06AM 38.6067 -75.4747 185° South 397 457 22,700 1,380 Climbing Washington Center
11:07AM 38.4942 -75.4883 186° South 407 468 24,100 1,260 Climbing Washington Center
11:08AM 38.3775 -75.5042 168° South 412 474 25,200 1,080 Climbing Washington Center
11:09AM 38.2628 -75.4728 161° South 446 513 26,400 1,320 Climbing Washington Center
11:10AM 38.1458 -75.4228 159° South 440 506 27,900 1,020 Climbing Washington Center
11:11AM 38.0311 -75.3678 159° South 440 506 28,500 1,020 Climbing Washington Center
11:12AM 37.9100 -75.3103 161° South 447 514 30,000 1,620 Climbing Washington Center
11:13AM 37.7972 -75.2606 160° South 447 514 31,800 1,320 Climbing Washington Center
11:14AM 37.6825 -75.2086 160° South 440 506 32,700 540 Climbing Washington Center
11:15AM 37.5736 -75.1594 159° South 434 499 33,000 120 Climbing Washington Center
11:16AM 37.4650 -75.1078 161° South 424 488 33,000  Level Washington Center
11:17AM 37.3522 -75.0589 160° South 424 488 33,000  Level Washington Center
11:18AM 37.2394 -75.0075 160° South 429 494 33,000  Level Washington Center
11:19AM 37.1286 -74.9561 160° South 429 494 33,000  Level Washington Center
11:21AM 36.9100 -74.8578 160° South 420 483 33,000  Level New York Center
11:22AM 36.7969 -74.8075 160° South 420 483 33,000  Level New York Center
11:23AM 36.6842 -74.7550 161° South 420 483 33,000  Level New York Center
11:24AM 36.5731 -74.7078 160° South 420 483 33,000  Level New York Center
11:25AM 36.4497 -74.6522 161° South 420 483 33,000  Level New York Center
11:26AM 36.3344 -74.6025 159° South 425 489 33,000  Level New York Center
11:27AM 36.2256 -74.5508 162° South 431 496 33,000  Level New York Center
11:28AM 36.1103 -74.5039 159° South 431 496 33,000 -120 Level New York Center
11:29AM 36.0014 -74.4525 163° South 426 490 32,800 -540 Descending New York Center
11:30AM 35.8881 -74.4086 158° South 426 490 32,000 -420 Descending New York Center
11:31AM 35.7792 -74.3547 161° South 426 490 32,000  Level New York Center
11:32AM 35.6678 -74.3086 161° South 421 484 32,000 -60 Level New York Center
11:33AM 35.5567 -74.2628 159° South 421 484 31,900 -60 Descending New York Center
11:34AM 35.4497 -74.2122 162° South 421 484 31,900  Level New York Center
11:35AM 35.3361 -74.1664 161° South 421 484 32,000  Climbing New York Center
11:36AM 35.2250 -74.1183 160° South 421 484 32,000  Level New York Center
11:37AM 35.1136 -74.0678 162° South 421 484 32,000  Level New York Center
11:38AM 35.0003 -74.0225 160° South 421 484 32,000  Level New York Center
11:39AM 34.8869 -73.9722 162° South 421 484 32,000  Level New York Center
11:40AM 34.7733 -73.9272 160° South 421 484 32,000 -60 Level New York Center
11:41AM 34.6622 -73.8775 161° South 421 484 31,900  Descending New York Center
11:42AM 34.5467 -73.8300 164° South 426 490 32,000  Climbing New York Center
11:47AM 34.3667 -73.7667 165° South 433 498 32,000  Level New York Oceanic (ODAPS)
12:22PM 30.1667 -72.4500 166° South 433 498 32,000  Level New York Oceanic (ODAPS)
12:58PM 25.4575 -71.1664 168° South 429 494 32,000  Level Miami Center
01:03PM 24.8233 -71.0153 173° South 449 517 32,000  Level Miami Center
01:04PM 24.6972 -70.9983 176° South 449 517 32,000  Level Miami Center
01:05PM 24.5694 -70.9886 174° South 449 517 32,000  Level Miami Center
01:06PM 24.4436 -70.9739 171° South 454 522 32,000 420 Level Miami Center
01:07PM 24.3197 -70.9525 164° South 459 528 32,900 480 Climbing Miami Center
01:08PM 24.1950 -70.9128 164° South 459 528 33,000  Climbing Miami Center
01:09PM 24.0722 -70.8733 167° South 464 534 33,000  Level Miami Center
01:10PM 23.9544 -70.8447 164° South 458 527 33,000  Level Miami Center
01:11PM 23.8317 -70.8053 166° South 452 520 33,000  Level Miami Center
01:12PM 23.7114 -70.7725 163° South 452 520 33,000  Level Miami Center
01:13PM 23.5886 -70.7308 168° South 452 520 33,000  Level Miami Center
01:14PM 23.4686 -70.7028 164° South 452 520 33,000  Level Miami Center
01:15PM 23.3481 -70.6656 163° South 452 520 33,000  Level Miami Center
01:16PM 23.2275 -70.6264 166° South 452 520 33,000  Level Miami Center
01:17PM 23.1050 -70.5939 165° South 458 527 33,000  Level Miami Center
01:18PM 22.9828 -70.5592 165° South 458 527 33,000  Level Miami Center
01:19PM 22.8600 -70.5225 165° South 458 527 33,000  Level Miami Center
01:20PM 22.7375 -70.4858 166° South 458 527 33,000  Level Miami Center
01:21PM 22.6172 -70.4533 163° South 458 527 33,000  Level Miami Center
01:22PM 22.4967 -70.4144 165° South 458 527 33,000  Level Miami Center
01:23PM 22.3764 -70.3800 166° South 458 527 33,000  Level Miami Center
01:24PM 22.2539 -70.3458 165° South 458 527 33,000  Level Miami Center
01:25PM 22.1356 -70.3114 164° South 458 527 33,000  Level Miami Center
01:26PM 22.0131 -70.2747 165° South 458 527 33,000  Level Miami Center
01:27PM 21.8947 -70.2406 165° South 458 527 33,000  Level Miami Center
01:28PM 21.7744 -70.2064 165° South 458 527 33,000  Level Miami Center
01:29PM 21.6542 -70.1722 165° South 453 521 33,000  Level Miami Center
01:30PM 21.5339 -70.1381 165° South 448 516 33,000  Level Miami Center
01:31PM 21.4283 -70.1078 164° South 448 516 33,000  Level Miami Center
01:32PM 21.3078 -70.0714 165° South 442 509 33,000  Level Miami Center
01:33PM 21.1897 -70.0375 165° South 442 509 33,000  Level Miami Center
01:34PM 21.0714 -70.0033 165° South 442 509 33,000  Level Miami Center
01:35PM 20.9511 -69.9694 165° South 442 509 33,000  Level Miami Center
01:36PM 20.8331 -69.9356 166° South 447 514 33,000 -300 Level Miami Center
01:37PM 20.7147 -69.9039 164° South 441 507 32,400 -840 Descending Miami Center
01:38PM 20.5967 -69.8681 166° South 441 507 31,400 -1,020 Descending Miami Center
01:39PM 20.4742 -69.8344 165° South 441 507 30,400 -1,020 Descending Miami Center
01:40PM 20.3539 -69.8008 165° South 441 507 29,400 -960 Descending Miami Center
01:41PM 20.2336 -69.7672 165° South 441 507 28,500 -960 Descending Miami Center
01:42PM 20.1178 -69.7333 166° South 441 507 27,500 -780 Descending Miami Center
01:43PM 20.0058 -69.7039 140° Southeast 435 501 27,000 -540 Descending Miami Center
01:50PM 19.3196 -69.0861 138° Southeast  Level FlightAware Approximate
01:51PM 19.2334 -69.0033 138° Southeast  Level FlightAware Approximate
01:52PM 19.1472 -68.9205 137° Southeast  Level FlightAware Approximate
01:53PM 19.0620 -68.8376 139° Southeast  Level FlightAware Approximate
01:54PM 18.9739 -68.7573 138° Southeast  Level FlightAware Approximate
01:55PM 18.8879 -68.6745 140° Southeast  Level FlightAware Approximate
01:56PM 18.7994 -68.5954 138° Southeast  Level FlightAware Approximate
01:57PM 18.7167 -68.5176 140° Southeast  Level FlightAware Approximate
01:58PM 18.6289 -68.4385 124° Southeast  Level FlightAware Approximate
01:59PM 18.5667 -68.3414 272° West  Level FlightAware Approximate
02:00PM 18.5705 -68.4641 92° East  Level Estimated
02:01PM 18.5667 -68.3414 272° West  Level FlightAware Approximate
02:02PM 18.5705 -68.4641 92° East  Level Estimated
02:03PM 18.5667 -68.3414 272° West  Level FlightAware Approximate
02:04PM 18.5705 -68.4641 92° East  Level Estimated
02:05PM 18.5667 -68.3333 271° West  Level FlightAware Approximate
02:06PM 18.5695 -68.4561 91° East  Level Estimated
02:07PM 18.5667 -68.3333 91° East  Level FlightAware Approximate